Archival Weather

NSFA McMurdo Sound

NSFA McMurdo Sound, Antarctica (NZCM)

Report from: Tuesday, June 6, 2023 6:55 PM UTC
Current time: Tuesday, July 16, 2024 10:09 AM UTC

Current weather – Weather history – Daily summaries
Weather forecast

Temperature-25.5°C (-13.9°F)
Dew point-36.4°C (-33.5°F)
Winds Calm
Visibility6.2 mi. (10 km)
Clouds Sky clear
Altimeter28.83 in.Hg (976 mB)
Relative humidity35 %
Density altitude-7,418 ft. (-2,261 m)
Sea-level pressure107.7 kPa (1077 mB, 31.80 in.Hg)
Remarks Automated weather observing station with precipitation discriminator
Flight conditions Visual Meteorological Conditions
Raw dataNZCM 061855Z 00000KT 9999 CLR M26/M36 A2883 RMK AO2 SLP769 T12551364
An error has occurred. This application may no longer respond until reloaded. Reload 🗙